sensor_id;sensor_type;location;lat;lon;timestamp;pressure;altitude;pressure_sealevel;temperature;humidity
22333;BME280;11334;36.986;-121.936;2023-03-14T00:02:13;101358.22;;;18.67;88.18
22333;BME280;11334;36.986;-121.936;2023-03-14T00:04:39;101346.94;;;18.51;88.59
22333;BME280;11334;36.986;-121.936;2023-03-14T00:07:06;101347.25;;;18.41;90.09
22333;BME280;11334;36.986;-121.936;2023-03-14T00:09:32;101349.94;;;18.41;90.38
22333;BME280;11334;36.986;-121.936;2023-03-14T00:11:58;101341.06;;;18.41;91.17
22333;BME280;11334;36.986;-121.936;2023-03-14T00:14:24;101339.84;;;18.43;90.56
22333;BME280;11334;36.986;-121.936;2023-03-14T00:16:51;101325.69;;;18.35;90.89
22333;BME280;11334;36.986;-121.936;2023-03-14T00:19:17;101302.25;;;18.23;91.65
22333;BME280;11334;36.986;-121.936;2023-03-14T00:21:43;101325.84;;;18.27;92.44
22333;BME280;11334;36.986;-121.936;2023-03-14T00:24:09;101319.69;;;18.33;93.36
22333;BME280;11334;36.986;-121.936;2023-03-14T00:26:35;101313.31;;;18.34;93.52
22333;BME280;11334;36.986;-121.936;2023-03-14T00:29:02;101297.59;;;18.31;93.49
22333;BME280;11334;36.986;-121.936;2023-03-14T00:31:28;101294.78;;;18.39;93.16
22333;BME280;11334;36.986;-121.936;2023-03-14T00:33:54;101298.28;;;18.39;91.44
22333;BME280;11334;36.986;-121.936;2023-03-14T00:36:21;101295.19;;;18.36;92.26
22333;BME280;11334;36.986;-121.936;2023-03-14T00:38:50;101299.66;;;18.29;93.36
22333;BME280;11334;36.986;-121.936;2023-03-14T00:41:23;101302.50;;;18.28;91.81
22333;BME280;11334;36.986;-121.936;2023-03-14T00:43:50;101287.38;;;18.20;92.20
22333;BME280;11334;36.986;-121.936;2023-03-14T00:46:17;101305.72;;;18.17;92.84
22333;BME280;11334;36.986;-121.936;2023-03-14T00:48:46;101295.00;;;18.17;92.71
22333;BME280;11334;36.986;-121.936;2023-03-14T00:51:13;101300.09;;;18.12;93.47
22333;BME280;11334;36.986;-121.936;2023-03-14T00:53:41;101304.91;;;18.02;92.95
22333;BME280;11334;36.986;-121.936;2023-03-14T00:56:10;101308.34;;;17.96;93.96
22333;BME280;11334;36.986;-121.936;2023-03-14T00:58:38;101314.91;;;17.94;94.12
22333;BME280;11334;36.986;-121.936;2023-03-14T01:01:08;101310.00;;;17.97;92.93
22333;BME280;11334;36.986;-121.936;2023-03-14T01:03:35;101335.66;;;17.85;93.76
22333;BME280;11334;36.986;-121.936;2023-03-14T01:06:10;101328.81;;;17.83;93.90
22333;BME280;11334;36.986;-121.936;2023-03-14T01:08:37;101346.41;;;17.71;94.13
22333;BME280;11334;36.986;-121.936;2023-03-14T01:11:08;101339.69;;;17.61;95.24
22333;BME280;11334;36.986;-121.936;2023-03-14T01:13:35;101355.22;;;17.51;96.89
22333;BME280;11334;36.986;-121.936;2023-03-14T01:16:04;101351.72;;;17.50;97.92
22333;BME280;11334;36.986;-121.936;2023-03-14T01:18:32;101345.41;;;17.43;96.23
22333;BME280;11334;36.986;-121.936;2023-03-14T01:21:02;101347.66;;;17.40;97.43
22333;BME280;11334;36.986;-121.936;2023-03-14T01:23:28;101348.66;;;17.39;97.35
22333;BME280;11334;36.986;-121.936;2023-03-14T01:25:54;101343.94;;;17.41;97.38
22333;BME280;11334;36.986;-121.936;2023-03-14T01:28:20;101336.00;;;17.33;97.31
22333;BME280;11334;36.986;-121.936;2023-03-14T01:30:47;101331.03;;;17.30;97.78
22333;BME280;11334;36.986;-121.936;2023-03-14T01:33:13;101337.09;;;17.39;98.47
22333;BME280;11334;36.986;-121.936;2023-03-14T01:35:40;101328.72;;;17.27;97.55
22333;BME280;11334;36.986;-121.936;2023-03-14T01:38:06;101340.06;;;17.29;97.80
22333;BME280;11334;36.986;-121.936;2023-03-14T01:40:32;101341.56;;;17.17;98.60
22333;BME280;11334;36.986;-121.936;2023-03-14T01:43:12;101345.25;;;17.16;99.47
22333;BME280;11334;36.986;-121.936;2023-03-14T01:46:12;101339.38;;;16.99;99.91
22333;BME280;11334;36.986;-121.936;2023-03-14T01:48:54;101343.50;;;16.87;100.00
22333;BME280;11334;36.986;-121.936;2023-03-14T01:51:35;101345.19;;;16.88;100.00
22333;BME280;11334;36.986;-121.936;2023-03-14T01:56:46;101330.78;;;16.89;100.00
22333;BME280;11334;36.986;-121.936;2023-03-14T01:59:13;101322.19;;;16.93;100.00
22333;BME280;11334;36.986;-121.936;2023-03-14T02:01:43;101324.22;;;16.91;100.00
22333;BME280;11334;36.986;-121.936;2023-03-14T02:04:10;101316.38;;;16.90;100.00
22333;BME280;11334;36.986;-121.936;2023-03-14T02:06:47;101315.38;;;16.91;100.00
22333;BME280;11334;36.986;-121.936;2023-03-14T02:09:15;101306.41;;;16.84;100.00
22333;BME280;11334;36.986;-121.936;2023-03-14T02:11:45;101302.69;;;16.85;100.00
22333;BME280;11334;36.986;-121.936;2023-03-14T02:14:19;101306.94;;;16.79;100.00
22333;BME280;11334;36.986;-121.936;2023-03-14T02:16:48;101295.59;;;16.77;100.00
22333;BME280;11334;36.986;-121.936;2023-03-14T02:19:17;101289.94;;;16.73;100.00
22333;BME280;11334;36.986;-121.936;2023-03-14T02:22:09;101294.06;;;16.46;100.00
22333;BME280;11334;36.986;-121.936;2023-03-14T02:27:44;101279.88;;;16.46;100.00
22333;BME280;11334;36.986;-121.936;2023-03-14T02:30:21;101284.66;;;16.50;100.00
22333;BME280;11334;36.986;-121.936;2023-03-14T02:33:05;101280.78;;;16.53;100.00
22333;BME280;11334;36.986;-121.936;2023-03-14T02:35:48;101270.72;;;16.55;100.00
22333;BME280;11334;36.986;-121.936;2023-03-14T02:41:01;101277.53;;;16.43;100.00
22333;BME280;11334;36.986;-121.936;2023-03-14T02:43:27;101283.91;;;16.42;100.00
22333;BME280;11334;36.986;-121.936;2023-03-14T02:45:54;101285.91;;;16.40;100.00
22333;BME280;11334;36.986;-121.936;2023-03-14T02:50:54;101277.00;;;16.47;100.00
22333;BME280;11334;36.986;-121.936;2023-03-14T02:53:25;101261.91;;;16.32;100.00
22333;BME280;11334;36.986;-121.936;2023-03-14T02:55:52;101273.66;;;16.31;100.00
22333;BME280;11334;36.986;-121.936;2023-03-14T02:58:19;101260.44;;;16.30;100.00
22333;BME280;11334;36.986;-121.936;2023-03-14T03:00:46;101278.22;;;16.23;100.00
22333;BME280;11334;36.986;-121.936;2023-03-14T03:03:12;101286.06;;;16.24;100.00
22333;BME280;11334;36.986;-121.936;2023-03-14T03:05:38;101285.88;;;16.04;100.00
22333;BME280;11334;36.986;-121.936;2023-03-14T03:08:05;101282.59;;;15.94;100.00
22333;BME280;11334;36.986;-121.936;2023-03-14T03:10:34;101283.06;;;15.97;100.00
22333;BME280;11334;36.986;-121.936;2023-03-14T03:13:01;101294.22;;;16.01;100.00
22333;BME280;11334;36.986;-121.936;2023-03-14T03:15:28;101291.84;;;16.06;100.00
22333;BME280;11334;36.986;-121.936;2023-03-14T03:17:55;101288.56;;;16.04;100.00
22333;BME280;11334;36.986;-121.936;2023-03-14T03:20:21;101290.34;;;16.11;100.00
22333;BME280;11334;36.986;-121.936;2023-03-14T03:22:47;101284.25;;;15.95;100.00
22333;BME280;11334;36.986;-121.936;2023-03-14T03:25:15;101287.00;;;15.87;100.00
22333;BME280;11334;36.986;-121.936;2023-03-14T03:27:42;101291.31;;;15.88;100.00
22333;BME280;11334;36.986;-121.936;2023-03-14T03:30:09;101308.16;;;15.96;100.00
22333;BME280;11334;36.986;-121.936;2023-03-14T03:32:35;101309.81;;;15.97;100.00
22333;BME280;11334;36.986;-121.936;2023-03-14T03:35:03;101310.63;;;15.98;100.00
22333;BME280;11334;36.986;-121.936;2023-03-14T03:37:32;101301.25;;;16.02;100.00
22333;BME280;11334;36.986;-121.936;2023-03-14T03:39:59;101298.09;;;15.98;100.00
22333;BME280;11334;36.986;-121.936;2023-03-14T03:42:27;101296.59;;;15.96;100.00
22333;BME280;11334;36.986;-121.936;2023-03-14T03:44:53;101309.50;;;15.92;100.00
22333;BME280;11334;36.986;-121.936;2023-03-14T03:47:19;101301.78;;;15.97;100.00
22333;BME280;11334;36.986;-121.936;2023-03-14T03:49:45;101289.25;;;15.98;100.00
22333;BME280;11334;36.986;-121.936;2023-03-14T03:52:12;101291.75;;;15.99;100.00
22333;BME280;11334;36.986;-121.936;2023-03-14T03:54:38;101275.41;;;15.94;100.00
22333;BME280;11334;36.986;-121.936;2023-03-14T03:57:04;101280.56;;;15.96;100.00
22333;BME280;11334;36.986;-121.936;2023-03-14T03:59:30;101283.81;;;16.06;100.00
22333;BME280;11334;36.986;-121.936;2023-03-14T04:01:56;101286.75;;;15.96;100.00
22333;BME280;11334;36.986;-121.936;2023-03-14T04:04:23;101285.59;;;15.91;100.00
22333;BME280;11334;36.986;-121.936;2023-03-14T04:06:49;101278.53;;;15.98;100.00
22333;BME280;11334;36.986;-121.936;2023-03-14T04:09:15;101279.81;;;16.10;100.00
22333;BME280;11334;36.986;-121.936;2023-03-14T04:11:42;101277.09;;;16.17;100.00
22333;BME280;11334;36.986;-121.936;2023-03-14T04:14:08;101288.28;;;16.13;100.00
22333;BME280;11334;36.986;-121.936;2023-03-14T04:16:34;101283.31;;;16.10;100.00
22333;BME280;11334;36.986;-121.936;2023-03-14T04:19:02;101282.63;;;16.08;100.00
22333;BME280;11334;36.986;-121.936;2023-03-14T04:21:28;101274.81;;;16.07;100.00
22333;BME280;11334;36.986;-121.936;2023-03-14T04:23:54;101270.47;;;16.06;100.00
22333;BME280;11334;36.986;-121.936;2023-03-14T04:26:21;101266.22;;;15.97;100.00
22333;BME280;11334;36.986;-121.936;2023-03-14T04:28:47;101271.13;;;16.08;100.00
22333;BME280;11334;36.986;-121.936;2023-03-14T04:31:19;101268.44;;;16.08;100.00
22333;BME280;11334;36.986;-121.936;2023-03-14T04:33:47;101272.50;;;16.04;100.00
22333;BME280;11334;36.986;-121.936;2023-03-14T04:36:14;101278.09;;;15.94;100.00
22333;BME280;11334;36.986;-121.936;2023-03-14T04:38:40;101278.75;;;15.96;100.00
22333;BME280;11334;36.986;-121.936;2023-03-14T04:41:07;101271.19;;;16.00;100.00
22333;BME280;11334;36.986;-121.936;2023-03-14T04:43:33;101278.69;;;16.04;100.00
22333;BME280;11334;36.986;-121.936;2023-03-14T04:45:59;101265.38;;;15.96;100.00
22333;BME280;11334;36.986;-121.936;2023-03-14T04:48:26;101275.88;;;15.98;100.00
22333;BME280;11334;36.986;-121.936;2023-03-14T04:50:53;101270.16;;;16.01;100.00
22333;BME280;11334;36.986;-121.936;2023-03-14T04:53:20;101254.84;;;15.95;100.00
22333;BME280;11334;36.986;-121.936;2023-03-14T04:55:53;101269.19;;;16.02;100.00
22333;BME280;11334;36.986;-121.936;2023-03-14T04:58:21;101274.31;;;16.03;100.00
22333;BME280;11334;36.986;-121.936;2023-03-14T05:00:48;101272.16;;;16.07;100.00
22333;BME280;11334;36.986;-121.936;2023-03-14T05:03:18;101270.81;;;16.03;100.00
22333;BME280;11334;36.986;-121.936;2023-03-14T05:05:45;101265.13;;;16.06;100.00
22333;BME280;11334;36.986;-121.936;2023-03-14T05:08:12;101262.09;;;16.09;100.00
22333;BME280;11334;36.986;-121.936;2023-03-14T05:10:38;101253.72;;;16.12;100.00
22333;BME280;11334;36.986;-121.936;2023-03-14T05:13:05;101253.38;;;16.14;100.00
22333;BME280;11334;36.986;-121.936;2023-03-14T05:15:31;101248.88;;;16.15;100.00
22333;BME280;11334;36.986;-121.936;2023-03-14T05:17:57;101244.00;;;16.18;100.00
22333;BME280;11334;36.986;-121.936;2023-03-14T05:20:23;101241.97;;;16.20;100.00
22333;BME280;11334;36.986;-121.936;2023-03-14T05:22:50;101238.47;;;16.20;100.00
22333;BME280;11334;36.986;-121.936;2023-03-14T05:25:16;101227.13;;;16.18;100.00
22333;BME280;11334;36.986;-121.936;2023-03-14T05:27:42;101225.09;;;16.20;100.00
22333;BME280;11334;36.986;-121.936;2023-03-14T05:30:09;101215.97;;;16.14;100.00
22333;BME280;11334;36.986;-121.936;2023-03-14T05:32:35;101211.28;;;16.16;100.00
22333;BME280;11334;36.986;-121.936;2023-03-14T05:35:02;101213.56;;;16.19;100.00
22333;BME280;11334;36.986;-121.936;2023-03-14T05:37:28;101203.72;;;16.20;100.00
22333;BME280;11334;36.986;-121.936;2023-03-14T05:39:55;101202.72;;;16.21;100.00
22333;BME280;11334;36.986;-121.936;2023-03-14T05:42:21;101190.81;;;16.23;100.00
22333;BME280;11334;36.986;-121.936;2023-03-14T05:44:47;101193.00;;;16.20;100.00
22333;BME280;11334;36.986;-121.936;2023-03-14T05:47:13;101186.69;;;16.13;100.00
22333;BME280;11334;36.986;-121.936;2023-03-14T05:49:40;101183.50;;;16.17;100.00
22333;BME280;11334;36.986;-121.936;2023-03-14T05:52:06;101193.53;;;16.15;100.00
22333;BME280;11334;36.986;-121.936;2023-03-14T05:54:32;101184.91;;;16.13;100.00
22333;BME280;11334;36.986;-121.936;2023-03-14T05:56:58;101174.66;;;16.17;100.00
22333;BME280;11334;36.986;-121.936;2023-03-14T05:59:25;101174.00;;;16.15;100.00
22333;BME280;11334;36.986;-121.936;2023-03-14T06:01:51;101167.66;;;16.16;100.00
22333;BME280;11334;36.986;-121.936;2023-03-14T06:04:17;101163.78;;;16.18;100.00
22333;BME280;11334;36.986;-121.936;2023-03-14T06:06:43;101166.63;;;16.17;100.00
22333;BME280;11334;36.986;-121.936;2023-03-14T06:09:10;101166.09;;;16.21;100.00
22333;BME280;11334;36.986;-121.936;2023-03-14T06:11:36;101164.41;;;16.20;100.00
22333;BME280;11334;36.986;-121.936;2023-03-14T06:14:02;101155.13;;;16.16;100.00
22333;BME280;11334;36.986;-121.936;2023-03-14T06:16:28;101147.28;;;16.29;100.00
22333;BME280;11334;36.986;-121.936;2023-03-14T06:18:55;101146.25;;;16.30;100.00
22333;BME280;11334;36.986;-121.936;2023-03-14T06:21:21;101148.41;;;16.35;100.00
22333;BME280;11334;36.986;-121.936;2023-03-14T06:23:47;101144.34;;;16.24;100.00
22333;BME280;11334;36.986;-121.936;2023-03-14T06:26:14;101145.72;;;16.20;100.00
22333;BME280;11334;36.986;-121.936;2023-03-14T06:28:40;101131.38;;;15.99;100.00
22333;BME280;11334;36.986;-121.936;2023-03-14T06:31:06;101136.19;;;16.04;100.00
22333;BME280;11334;36.986;-121.936;2023-03-14T06:33:32;101137.81;;;16.05;100.00
22333;BME280;11334;36.986;-121.936;2023-03-14T06:35:59;101135.59;;;15.94;100.00
22333;BME280;11334;36.986;-121.936;2023-03-14T06:38:25;101135.78;;;15.92;100.00
22333;BME280;11334;36.986;-121.936;2023-03-14T06:40:51;101120.09;;;15.89;100.00
22333;BME280;11334;36.986;-121.936;2023-03-14T06:43:18;101118.91;;;15.92;100.00
22333;BME280;11334;36.986;-121.936;2023-03-14T06:45:44;101115.50;;;15.98;100.00
22333;BME280;11334;36.986;-121.936;2023-03-14T06:48:11;101112.47;;;16.01;100.00
22333;BME280;11334;36.986;-121.936;2023-03-14T06:50:37;101106.94;;;16.02;100.00
22333;BME280;11334;36.986;-121.936;2023-03-14T06:53:03;101107.41;;;16.06;100.00
22333;BME280;11334;36.986;-121.936;2023-03-14T06:55:30;101094.22;;;16.04;100.00
22333;BME280;11334;36.986;-121.936;2023-03-14T06:57:56;101096.06;;;16.04;100.00
22333;BME280;11334;36.986;-121.936;2023-03-14T07:00:23;101089.72;;;16.05;100.00
22333;BME280;11334;36.986;-121.936;2023-03-14T07:02:49;101079.19;;;16.03;100.00
22333;BME280;11334;36.986;-121.936;2023-03-14T07:05:15;101074.59;;;15.97;100.00
22333;BME280;11334;36.986;-121.936;2023-03-14T07:07:41;101072.00;;;15.89;100.00
22333;BME280;11334;36.986;-121.936;2023-03-14T07:10:08;101082.59;;;15.97;100.00
22333;BME280;11334;36.986;-121.936;2023-03-14T07:12:34;101080.09;;;15.96;100.00
22333;BME280;11334;36.986;-121.936;2023-03-14T07:15:01;101084.34;;;15.90;100.00
22333;BME280;11334;36.986;-121.936;2023-03-14T07:17:27;101081.94;;;15.95;100.00
22333;BME280;11334;36.986;-121.936;2023-03-14T07:19:53;101081.50;;;15.92;100.00
22333;BME280;11334;36.986;-121.936;2023-03-14T07:22:20;101082.03;;;15.87;100.00
22333;BME280;11334;36.986;-121.936;2023-03-14T07:24:46;101074.38;;;15.84;100.00
22333;BME280;11334;36.986;-121.936;2023-03-14T07:27:12;101064.97;;;15.88;100.00
22333;BME280;11334;36.986;-121.936;2023-03-14T07:29:38;101070.53;;;15.87;100.00
22333;BME280;11334;36.986;-121.936;2023-03-14T07:32:05;101066.00;;;15.87;100.00
22333;BME280;11334;36.986;-121.936;2023-03-14T07:34:31;101060.50;;;15.89;100.00
22333;BME280;11334;36.986;-121.936;2023-03-14T07:36:57;101057.16;;;15.87;100.00
22333;BME280;11334;36.986;-121.936;2023-03-14T07:39:23;101047.94;;;15.89;100.00
22333;BME280;11334;36.986;-121.936;2023-03-14T07:41:50;101049.13;;;15.87;100.00
22333;BME280;11334;36.986;-121.936;2023-03-14T07:44:16;101045.91;;;15.77;100.00
22333;BME280;11334;36.986;-121.936;2023-03-14T07:46:42;101039.53;;;15.78;100.00
22333;BME280;11334;36.986;-121.936;2023-03-14T07:49:09;101051.25;;;15.77;100.00
22333;BME280;11334;36.986;-121.936;2023-03-14T07:51:35;101052.25;;;15.76;100.00
22333;BME280;11334;36.986;-121.936;2023-03-14T07:54:01;101041.09;;;15.73;100.00
22333;BME280;11334;36.986;-121.936;2023-03-14T07:56:27;101038.59;;;15.71;100.00
22333;BME280;11334;36.986;-121.936;2023-03-14T07:58:54;101027.84;;;15.65;100.00
22333;BME280;11334;36.986;-121.936;2023-03-14T08:01:20;101032.97;;;15.66;100.00
22333;BME280;11334;36.986;-121.936;2023-03-14T08:03:46;101028.66;;;15.65;100.00
22333;BME280;11334;36.986;-121.936;2023-03-14T08:06:12;101019.97;;;15.63;100.00
22333;BME280;11334;36.986;-121.936;2023-03-14T08:08:39;101003.03;;;15.56;100.00
22333;BME280;11334;36.986;-121.936;2023-03-14T08:11:06;101014.28;;;15.66;100.00
22333;BME280;11334;36.986;-121.936;2023-03-14T08:13:37;101000.91;;;15.66;100.00
22333;BME280;11334;36.986;-121.936;2023-03-14T08:16:04;100996.06;;;15.70;100.00
22333;BME280;11334;36.986;-121.936;2023-03-14T08:18:30;100976.59;;;15.61;100.00
22333;BME280;11334;36.986;-121.936;2023-03-14T08:20:57;100993.47;;;15.76;100.00
22333;BME280;11334;36.986;-121.936;2023-03-14T08:23:23;100991.16;;;15.73;100.00
22333;BME280;11334;36.986;-121.936;2023-03-14T08:25:50;100995.31;;;15.76;100.00
22333;BME280;11334;36.986;-121.936;2023-03-14T08:28:17;100990.16;;;15.74;100.00
22333;BME280;11334;36.986;-121.936;2023-03-14T08:30:44;100978.91;;;15.64;100.00
22333;BME280;11334;36.986;-121.936;2023-03-14T08:33:10;100985.53;;;15.68;100.00
22333;BME280;11334;36.986;-121.936;2023-03-14T08:35:37;100973.22;;;15.67;100.00
22333;BME280;11334;36.986;-121.936;2023-03-14T08:38:03;100973.84;;;15.69;100.00
22333;BME280;11334;36.986;-121.936;2023-03-14T08:40:30;100961.03;;;15.65;100.00
22333;BME280;11334;36.986;-121.936;2023-03-14T08:42:56;100961.31;;;15.70;100.00
22333;BME280;11334;36.986;-121.936;2023-03-14T08:45:22;100954.94;;;15.71;100.00
22333;BME280;11334;36.986;-121.936;2023-03-14T08:47:50;100953.69;;;15.67;100.00
22333;BME280;11334;36.986;-121.936;2023-03-14T08:50:17;100956.53;;;15.65;100.00
22333;BME280;11334;36.986;-121.936;2023-03-14T08:52:43;100945.56;;;15.75;100.00
22333;BME280;11334;36.986;-121.936;2023-03-14T08:55:09;100945.75;;;15.73;100.00
22333;BME280;11334;36.986;-121.936;2023-03-14T08:57:36;100935.16;;;15.65;100.00
22333;BME280;11334;36.986;-121.936;2023-03-14T09:00:04;100945.84;;;15.65;100.00
22333;BME280;11334;36.986;-121.936;2023-03-14T09:02:35;100952.00;;;15.66;100.00
22333;BME280;11334;36.986;-121.936;2023-03-14T09:05:02;100944.81;;;15.66;100.00
22333;BME280;11334;36.986;-121.936;2023-03-14T09:07:28;100948.22;;;15.60;100.00
22333;BME280;11334;36.986;-121.936;2023-03-14T09:09:54;100937.81;;;15.65;100.00
22333;BME280;11334;36.986;-121.936;2023-03-14T09:12:20;100944.81;;;15.66;100.00
22333;BME280;11334;36.986;-121.936;2023-03-14T09:14:46;100935.97;;;15.66;100.00
22333;BME280;11334;36.986;-121.936;2023-03-14T09:17:13;100934.78;;;15.68;100.00
22333;BME280;11334;36.986;-121.936;2023-03-14T09:19:39;100937.19;;;15.63;100.00
22333;BME280;11334;36.986;-121.936;2023-03-14T09:22:05;100923.38;;;15.60;100.00
22333;BME280;11334;36.986;-121.936;2023-03-14T09:24:31;100912.69;;;15.60;100.00
22333;BME280;11334;36.986;-121.936;2023-03-14T09:26:58;100922.81;;;15.64;100.00
22333;BME280;11334;36.986;-121.936;2023-03-14T09:29:24;100913.69;;;15.59;100.00
22333;BME280;11334;36.986;-121.936;2023-03-14T09:31:50;100906.53;;;15.59;100.00
22333;BME280;11334;36.986;-121.936;2023-03-14T09:34:16;100906.16;;;15.62;100.00
22333;BME280;11334;36.986;-121.936;2023-03-14T09:36:43;100894.81;;;15.60;100.00
22333;BME280;11334;36.986;-121.936;2023-03-14T09:39:11;100876.66;;;15.56;100.00
22333;BME280;11334;36.986;-121.936;2023-03-14T09:41:44;100878.97;;;15.59;100.00
22333;BME280;11334;36.986;-121.936;2023-03-14T09:44:19;100881.63;;;15.59;100.00
22333;BME280;11334;36.986;-121.936;2023-03-14T09:46:51;100877.13;;;15.59;100.00
22333;BME280;11334;36.986;-121.936;2023-03-14T09:49:25;100855.13;;;15.57;100.00
22333;BME280;11334;36.986;-121.936;2023-03-14T09:51:55;100834.31;;;15.53;100.00
22333;BME280;11334;36.986;-121.936;2023-03-14T09:54:39;100849.50;;;15.67;100.00
22333;BME280;11334;36.986;-121.936;2023-03-14T09:57:12;100836.97;;;15.67;100.00
22333;BME280;11334;36.986;-121.936;2023-03-14T09:59:43;100835.13;;;15.68;100.00
22333;BME280;11334;36.986;-121.936;2023-03-14T10:02:32;100821.94;;;15.66;100.00
22333;BME280;11334;36.986;-121.936;2023-03-14T10:05:00;100818.66;;;15.64;100.00
22333;BME280;11334;36.986;-121.936;2023-03-14T10:07:31;100818.00;;;15.62;100.00
22333;BME280;11334;36.986;-121.936;2023-03-14T10:09:58;100808.13;;;15.63;100.00
22333;BME280;11334;36.986;-121.936;2023-03-14T10:12:36;100795.22;;;15.66;100.00
22333;BME280;11334;36.986;-121.936;2023-03-14T10:15:08;100789.25;;;15.64;100.00
22333;BME280;11334;36.986;-121.936;2023-03-14T10:17:40;100790.25;;;15.63;100.00
22333;BME280;11334;36.986;-121.936;2023-03-14T10:20:14;100766.06;;;15.50;100.00
22333;BME280;11334;36.986;-121.936;2023-03-14T10:22:53;100773.97;;;15.58;100.00
22333;BME280;11334;36.986;-121.936;2023-03-14T10:25:31;100770.47;;;15.58;100.00
22333;BME280;11334;36.986;-121.936;2023-03-14T10:27:58;100770.09;;;15.61;100.00
22333;BME280;11334;36.986;-121.936;2023-03-14T10:30:38;100764.75;;;15.61;100.00
22333;BME280;11334;36.986;-121.936;2023-03-14T10:33:22;100773.41;;;15.63;100.00
22333;BME280;11334;36.986;-121.936;2023-03-14T10:35:55;100769.84;;;15.56;100.00
22333;BME280;11334;36.986;-121.936;2023-03-14T10:38:24;100763.03;;;15.53;100.00
22333;BME280;11334;36.986;-121.936;2023-03-14T10:40:52;100751.50;;;15.53;100.00
22333;BME280;11334;36.986;-121.936;2023-03-14T10:43:23;100752.81;;;15.57;100.00
22333;BME280;11334;36.986;-121.936;2023-03-14T10:45:58;100735.50;;;15.53;100.00
22333;BME280;11334;36.986;-121.936;2023-03-14T10:48:31;100726.41;;;15.48;100.00
22333;BME280;11334;36.986;-121.936;2023-03-14T10:51:07;100729.22;;;15.60;100.00
22333;BME280;11334;36.986;-121.936;2023-03-14T10:53:41;100718.69;;;15.59;100.00
22333;BME280;11334;36.986;-121.936;2023-03-14T10:56:12;100726.28;;;15.55;100.00
22333;BME280;11334;36.986;-121.936;2023-03-14T10:58:44;100714.56;;;15.56;100.00
22333;BME280;11334;36.986;-121.936;2023-03-14T11:04:14;100689.31;;;15.59;100.00
22333;BME280;11334;36.986;-121.936;2023-03-14T11:15:25;100666.75;;;15.61;100.00
22333;BME280;11334;36.986;-121.936;2023-03-14T11:20:56;100645.34;;;15.55;100.00
22333;BME280;11334;36.986;-121.936;2023-03-14T11:26:53;100616.34;;;15.52;100.00
22333;BME280;11334;36.986;-121.936;2023-03-14T11:29:28;100623.16;;;15.54;100.00
22333;BME280;11334;36.986;-121.936;2023-03-14T11:32:04;100609.16;;;15.52;100.00
22333;BME280;11334;36.986;-121.936;2023-03-14T11:34:50;100609.59;;;15.56;100.00
22333;BME280;11334;36.986;-121.936;2023-03-14T11:37:32;100602.59;;;15.55;100.00
22333;BME280;11334;36.986;-121.936;2023-03-14T11:40:13;100608.84;;;15.62;100.00
22333;BME280;11334;36.986;-121.936;2023-03-14T11:42:44;100608.19;;;15.60;100.00
22333;BME280;11334;36.986;-121.936;2023-03-14T11:45:27;100599.38;;;15.59;100.00
22333;BME280;11334;36.986;-121.936;2023-03-14T11:48:29;100596.88;;;15.58;100.00
22333;BME280;11334;36.986;-121.936;2023-03-14T11:51:07;100605.03;;;15.50;100.00
22333;BME280;11334;36.986;-121.936;2023-03-14T11:56:45;100603.84;;;15.59;100.00
22333;BME280;11334;36.986;-121.936;2023-03-14T11:59:33;100603.84;;;15.59;100.00
22333;BME280;11334;36.986;-121.936;2023-03-14T12:11:34;100569.34;;;15.57;100.00
22333;BME280;11334;36.986;-121.936;2023-03-14T12:14:02;100553.56;;;15.62;100.00
22333;BME280;11334;36.986;-121.936;2023-03-14T12:16:37;100538.75;;;15.60;100.00
22333;BME280;11334;36.986;-121.936;2023-03-14T12:22:30;100532.84;;;15.64;100.00
22333;BME280;11334;36.986;-121.936;2023-03-14T12:24:38;100504.38;;;15.50;100.00
22333;BME280;11334;36.986;-121.936;2023-03-14T12:27:13;100512.69;;;15.62;100.00
22333;BME280;11334;36.986;-121.936;2023-03-14T12:35:45;100478.56;;;15.64;100.00
22333;BME280;11334;36.986;-121.936;2023-03-14T12:38:29;100475.72;;;15.65;100.00
22333;BME280;11334;36.986;-121.936;2023-03-14T12:43:38;100476.09;;;15.62;100.00
22333;BME280;11334;36.986;-121.936;2023-03-14T12:59:51;100450.56;;;15.53;100.00
22333;BME280;11334;36.986;-121.936;2023-03-14T13:04:53;100432.69;;;15.54;100.00
22333;BME280;11334;36.986;-121.936;2023-03-14T13:12:51;100420.75;;;15.50;100.00
22333;BME280;11334;36.986;-121.936;2023-03-14T13:15:25;100402.06;;;15.50;100.00
22333;BME280;11334;36.986;-121.936;2023-03-14T13:17:56;100406.84;;;15.54;100.00
22333;BME280;11334;36.986;-121.936;2023-03-14T13:20:32;100402.09;;;15.56;100.00
22333;BME280;11334;36.986;-121.936;2023-03-14T13:23:00;100401.50;;;15.61;100.00
22333;BME280;11334;36.986;-121.936;2023-03-14T13:25:31;100380.88;;;15.42;100.00
22333;BME280;11334;36.986;-121.936;2023-03-14T13:27:58;100383.22;;;15.58;100.00
22333;BME280;11334;36.986;-121.936;2023-03-14T13:30:35;100390.59;;;15.56;100.00
22333;BME280;11334;36.986;-121.936;2023-03-14T13:33:05;100383.78;;;15.53;100.00
22333;BME280;11334;36.986;-121.936;2023-03-14T13:35:41;100369.00;;;15.51;100.00
22333;BME280;11334;36.986;-121.936;2023-03-14T13:38:22;100374.34;;;15.51;100.00